sensor_id;sensor_type;location;lat;lon;timestamp;pressure;altitude;pressure_sealevel;temperature;humidity
55351;BME280;62194;49.480;10.986;2023-02-03T00:00:04;99171.66;;;4.81;94.49
55351;BME280;62194;49.480;10.986;2023-02-03T00:00:10;99165.16;;;4.82;94.45
55351;BME280;62194;49.480;10.986;2023-02-03T00:00:16;99165.44;;;4.80;94.18
55351;BME280;62194;49.480;10.986;2023-02-03T00:00:21;99170.03;;;4.80;94.18
55351;BME280;62194;49.480;10.986;2023-02-03T00:00:26;99170.84;;;4.80;94.24
55351;BME280;62194;49.480;10.986;2023-02-03T00:00:32;99174.63;;;4.79;94.46
55351;BME280;62194;49.480;10.986;2023-02-03T00:00:38;99165.44;;;4.80;94.66
55351;BME280;62194;49.480;10.986;2023-02-03T00:00:43;99172.47;;;4.81;94.55
55351;BME280;62194;49.480;10.986;2023-02-03T00:00:48;99162.72;;;4.80;94.52
55351;BME280;62194;49.480;10.986;2023-02-03T00:00:54;99163.56;;;4.81;94.66
55351;BME280;62194;49.480;10.986;2023-02-03T00:00:59;99162.22;;;4.78;94.63
55351;BME280;62194;49.480;10.986;2023-02-03T00:01:05;99172.72;;;4.80;94.76
55351;BME280;62194;49.480;10.986;2023-02-03T00:01:10;99173.84;;;4.79;94.80
55351;BME280;62194;49.480;10.986;2023-02-03T00:01:16;99173.84;;;4.79;94.67
55351;BME280;62194;49.480;10.986;2023-02-03T00:01:21;99172.22;;;4.78;94.60
55351;BME280;62194;49.480;10.986;2023-02-03T00:01:27;99179.50;;;4.77;94.75
55351;BME280;62194;49.480;10.986;2023-02-03T00:01:32;99168.69;;;4.77;94.88
55351;BME280;62194;49.480;10.986;2023-02-03T00:01:38;99183.84;;;4.78;94.70
55351;BME280;62194;49.480;10.986;2023-02-03T00:01:43;99182.19;;;4.77;94.67
55351;BME280;62194;49.480;10.986;2023-02-03T00:01:48;99180.34;;;4.78;94.30
55351;BME280;62194;49.480;10.986;2023-02-03T00:01:54;99181.41;;;4.77;94.78
55351;BME280;62194;49.480;10.986;2023-02-03T00:01:59;99178.69;;;4.77;94.85
55351;BME280;62194;49.480;10.986;2023-02-03T00:02:04;99178.69;;;4.77;94.84
55351;BME280;62194;49.480;10.986;2023-02-03T00:02:09;99169.78;;;4.76;95.06
55351;BME280;62194;49.480;10.986;2023-02-03T00:02:15;99168.69;;;4.77;94.87
55351;BME280;62194;49.480;10.986;2023-02-03T00:02:20;99167.09;;;4.76;94.89
55351;BME280;62194;49.480;10.986;2023-02-03T00:02:25;99176.81;;;4.77;94.94
55351;BME280;62194;49.480;10.986;2023-02-03T00:02:30;99179.50;;;4.77;94.77
55351;BME280;62194;49.480;10.986;2023-02-03T00:02:36;99179.22;;;4.79;94.79
55351;BME280;62194;49.480;10.986;2023-02-03T00:02:41;99182.19;;;4.77;94.79
55351;BME280;62194;49.480;10.986;2023-02-03T00:02:46;99169.78;;;4.76;94.94
55351;BME280;62194;49.480;10.986;2023-02-03T00:02:52;99180.59;;;4.76;94.92
55351;BME280;62194;49.480;10.986;2023-02-03T00:02:57;99181.13;;;4.78;94.61
55351;BME280;62194;49.480;10.986;2023-02-03T00:03:02;99178.44;;;4.78;94.92
55351;BME280;62194;49.480;10.986;2023-02-03T00:03:08;99179.50;;;4.77;94.74
55351;BME280;62194;49.480;10.986;2023-02-03T00:03:13;99173.03;;;4.78;95.09
55351;BME280;62194;49.480;10.986;2023-02-03T00:03:18;99176.81;;;4.77;95.00
55351;BME280;62194;49.480;10.986;2023-02-03T00:03:24;99184.63;;;4.79;95.17
55351;BME280;62194;49.480;10.986;2023-02-03T00:03:29;99173.28;;;4.77;95.11
55351;BME280;62194;49.480;10.986;2023-02-03T00:03:34;99169.00;;;4.76;95.19
55351;BME280;62194;49.480;10.986;2023-02-03T00:03:39;99164.13;;;4.78;95.15
55351;BME280;62194;49.480;10.986;2023-02-03T00:03:45;99169.00;;;4.76;95.15
55351;BME280;62194;49.480;10.986;2023-02-03T00:03:50;99182.19;;;4.77;95.34
55351;BME280;62194;49.480;10.986;2023-02-03T00:03:55;99178.69;;;4.77;95.12
55351;BME280;62194;49.480;10.986;2023-02-03T00:04:00;99176.00;;;4.77;95.35
55351;BME280;62194;49.480;10.986;2023-02-03T00:04:06;99177.91;;;4.76;95.13
55351;BME280;62194;49.480;10.986;2023-02-03T00:04:11;99172.22;;;4.78;95.11
55351;BME280;62194;49.480;10.986;2023-02-03T00:04:17;99176.28;;;4.75;95.32
55351;BME280;62194;49.480;10.986;2023-02-03T00:04:22;99178.19;;;4.75;95.35
55351;BME280;62194;49.480;10.986;2023-02-03T00:04:27;99183.31;;;4.76;95.23
55351;BME280;62194;49.480;10.986;2023-02-03T00:04:33;99179.00;;;4.75;95.45
55351;BME280;62194;49.480;10.986;2023-02-03T00:04:38;99182.78;;;4.74;95.39
55351;BME280;62194;49.480;10.986;2023-02-03T00:04:43;99177.09;;;4.76;95.38
55351;BME280;62194;49.480;10.986;2023-02-03T00:04:49;99174.69;;;4.74;95.48
55351;BME280;62194;49.480;10.986;2023-02-03T00:04:54;99182.50;;;4.76;95.47
55351;BME280;62194;49.480;10.986;2023-02-03T00:04:59;99181.69;;;4.75;95.43
55351;BME280;62194;49.480;10.986;2023-02-03T00:05:05;99183.59;;;4.75;95.52
55351;BME280;62194;49.480;10.986;2023-02-03T00:05:10;99189.50;;;4.77;95.66
55351;BME280;62194;49.480;10.986;2023-02-03T00:05:15;99184.91;;;4.77;95.82
55351;BME280;62194;49.480;10.986;2023-02-03T00:05:21;99184.09;;;4.77;96.06
55351;BME280;62194;49.480;10.986;2023-02-03T00:05:26;99183.31;;;4.76;95.98
55351;BME280;62194;49.480;10.986;2023-02-03T00:05:33;99183.31;;;4.76;95.86
55351;BME280;62194;49.480;10.986;2023-02-03T00:05:40;99190.31;;;4.77;95.94
55351;BME280;62194;49.480;10.986;2023-02-03T00:05:46;99183.31;;;4.76;96.00
55351;BME280;62194;49.480;10.986;2023-02-03T00:05:51;99181.69;;;4.75;95.91
55351;BME280;62194;49.480;10.986;2023-02-03T00:05:56;99179.50;;;4.77;95.74
55351;BME280;62194;49.480;10.986;2023-02-03T00:06:02;99184.91;;;4.77;95.62
55351;BME280;62194;49.480;10.986;2023-02-03T00:06:08;99165.19;;;4.77;95.77
55351;BME280;62194;49.480;10.986;2023-02-03T00:06:14;99170.09;;;4.75;95.55
55351;BME280;62194;49.480;10.986;2023-02-03T00:06:19;99183.03;;;4.78;95.38
55351;BME280;62194;49.480;10.986;2023-02-03T00:06:25;99177.91;;;4.76;95.37
55351;BME280;62194;49.480;10.986;2023-02-03T00:06:31;99177.91;;;4.76;95.22
55351;BME280;62194;49.480;10.986;2023-02-03T00:06:36;99174.41;;;4.76;95.27
55351;BME280;62194;49.480;10.986;2023-02-03T00:06:42;99182.50;;;4.76;95.22
55351;BME280;62194;49.480;10.986;2023-02-03T00:06:47;99185.72;;;4.78;95.18
55351;BME280;62194;49.480;10.986;2023-02-03T00:06:53;99187.91;;;4.76;95.57
55351;BME280;62194;49.480;10.986;2023-02-03T00:06:58;99183.59;;;4.75;95.58
55351;BME280;62194;49.480;10.986;2023-02-03T00:07:03;99191.41;;;4.76;95.57
55351;BME280;62194;49.480;10.986;2023-02-03T00:07:11;99179.81;;;4.76;95.36
55351;BME280;62194;49.480;10.986;2023-02-03T00:07:18;99179.25;;;4.74;95.37
55351;BME280;62194;49.480;10.986;2023-02-03T00:07:23;99180.09;;;4.74;95.50
55351;BME280;62194;49.480;10.986;2023-02-03T00:07:28;99184.66;;;4.74;95.40
55351;BME280;62194;49.480;10.986;2023-02-03T00:07:36;99178.47;;;4.73;95.53
55351;BME280;62194;49.480;10.986;2023-02-03T00:07:41;99177.41;;;4.74;95.84
55351;BME280;62194;49.480;10.986;2023-02-03T00:07:48;99180.91;;;4.75;96.03
55351;BME280;62194;49.480;10.986;2023-02-03T00:07:54;99184.41;;;4.75;95.72
55351;BME280;62194;49.480;10.986;2023-02-03T00:07:59;99176.28;;;4.75;95.65
55351;BME280;62194;49.480;10.986;2023-02-03T00:08:06;99181.69;;;4.75;95.69
55351;BME280;62194;49.480;10.986;2023-02-03T00:08:12;99185.50;;;4.74;95.75
55351;BME280;62194;49.480;10.986;2023-02-03T00:08:18;99182.78;;;4.74;95.81
55351;BME280;62194;49.480;10.986;2023-02-03T00:08:24;99179.25;;;4.74;95.53
55351;BME280;62194;49.480;10.986;2023-02-03T00:08:29;99186.56;;;4.73;95.84
55351;BME280;62194;49.480;10.986;2023-02-03T00:08:36;99186.06;;;4.71;96.16
55351;BME280;62194;49.480;10.986;2023-02-03T00:08:42;99189.56;;;4.72;95.86
55351;BME280;62194;49.480;10.986;2023-02-03T00:08:48;99180.66;;;4.71;96.05
55351;BME280;62194;49.480;10.986;2023-02-03T00:08:57;99187.94;;;4.70;96.14
55351;BME280;62194;49.480;10.986;2023-02-03T00:09:03;99179.03;;;4.70;96.10
55351;BME280;62194;49.480;10.986;2023-02-03T00:09:09;99186.06;;;4.71;96.04
55351;BME280;62194;49.480;10.986;2023-02-03T00:09:14;99179.03;;;4.70;96.12
55351;BME280;62194;49.480;10.986;2023-02-03T00:09:20;99188.47;;;4.73;95.88
55351;BME280;62194;49.480;10.986;2023-02-03T00:09:25;99180.66;;;4.71;95.85
55351;BME280;62194;49.480;10.986;2023-02-03T00:09:30;99186.34;;;4.69;96.02
55351;BME280;62194;49.480;10.986;2023-02-03T00:09:36;99187.13;;;4.70;96.02
55351;BME280;62194;49.480;10.986;2023-02-03T00:09:41;99188.78;;;4.71;96.22
55351;BME280;62194;49.480;10.986;2023-02-03T00:09:46;99186.06;;;4.71;96.01
55351;BME280;62194;49.480;10.986;2023-02-03T00:09:52;99181.72;;;4.70;95.87
55351;BME280;62194;49.480;10.986;2023-02-03T00:09:57;99183.63;;;4.69;96.19
55351;BME280;62194;49.480;10.986;2023-02-03T00:10:03;99183.63;;;4.69;95.92
55351;BME280;62194;49.480;10.986;2023-02-03T00:10:09;99185.53;;;4.69;96.08
55351;BME280;62194;49.480;10.986;2023-02-03T00:10:15;99186.34;;;4.69;96.39
55351;BME280;62194;49.480;10.986;2023-02-03T00:10:25;99176.63;;;4.68;96.25
55351;BME280;62194;49.480;10.986;2023-02-03T00:10:32;99179.03;;;4.70;96.43
55351;BME280;62194;49.480;10.986;2023-02-03T00:10:38;99184.72;;;4.68;96.48
55351;BME280;62194;49.480;10.986;2023-02-03T00:10:44;99189.03;;;4.69;96.52
55351;BME280;62194;49.480;10.986;2023-02-03T00:10:50;99180.13;;;4.69;96.41
55351;BME280;62194;49.480;10.986;2023-02-03T00:10:57;99182.81;;;4.69;96.50
55351;BME280;62194;49.480;10.986;2023-02-03T00:11:03;99182.03;;;4.68;96.13
55351;BME280;62194;49.480;10.986;2023-02-03T00:11:09;99178.53;;;4.68;96.17
55351;BME280;62194;49.480;10.986;2023-02-03T00:11:14;99179.03;;;4.70;96.42
55351;BME280;62194;49.480;10.986;2023-02-03T00:11:20;99183.38;;;4.66;96.23
55351;BME280;62194;49.480;10.986;2023-02-03T00:11:28;99179.31;;;4.68;96.23
55351;BME280;62194;49.480;10.986;2023-02-03T00:11:33;99179.81;;;4.70;95.95
55351;BME280;62194;49.480;10.986;2023-02-03T00:11:39;99179.03;;;4.70;95.98
55351;BME280;62194;49.480;10.986;2023-02-03T00:11:44;99176.31;;;4.70;95.92
55351;BME280;62194;49.480;10.986;2023-02-03T00:11:49;99182.53;;;4.70;95.97
55351;BME280;62194;49.480;10.986;2023-02-03T00:11:55;99177.44;;;4.69;96.03
55351;BME280;62194;49.480;10.986;2023-02-03T00:12:00;99176.31;;;4.70;95.98
55351;BME280;62194;49.480;10.986;2023-02-03T00:12:06;99180.66;;;4.71;96.22
55351;BME280;62194;49.480;10.986;2023-02-03T00:12:11;99184.16;;;4.72;96.15
55351;BME280;62194;49.480;10.986;2023-02-03T00:12:16;99186.06;;;4.71;96.20
55351;BME280;62194;49.480;10.986;2023-02-03T00:12:22;99177.44;;;4.69;96.35
55351;BME280;62194;49.480;10.986;2023-02-03T00:12:27;99176.31;;;4.70;95.97
55351;BME280;62194;49.480;10.986;2023-02-03T00:12:33;99173.91;;;4.68;96.14
55351;BME280;62194;49.480;10.986;2023-02-03T00:12:39;99183.63;;;4.69;96.16
55351;BME280;62194;49.480;10.986;2023-02-03T00:12:44;99184.44;;;4.70;96.11
55351;BME280;62194;49.480;10.986;2023-02-03T00:12:50;99175.81;;;4.68;96.00
55351;BME280;62194;49.480;10.986;2023-02-03T00:12:59;99179.81;;;4.70;95.98
55351;BME280;62194;49.480;10.986;2023-02-03T00:13:05;99177.44;;;4.69;96.03
55351;BME280;62194;49.480;10.986;2023-02-03T00:13:10;99175.00;;;4.67;96.06
55351;BME280;62194;49.480;10.986;2023-02-03T00:13:16;99172.03;;;4.69;96.15
55351;BME280;62194;49.480;10.986;2023-02-03T00:13:21;99175.81;;;4.68;96.15
55351;BME280;62194;49.480;10.986;2023-02-03T00:13:27;99178.53;;;4.68;96.37
55351;BME280;62194;49.480;10.986;2023-02-03T00:13:33;99175.81;;;4.68;96.40
55351;BME280;62194;49.480;10.986;2023-02-03T00:13:39;99178.78;;;4.66;96.41
55351;BME280;62194;49.480;10.986;2023-02-03T00:13:44;99186.63;;;4.68;96.29
55351;BME280;62194;49.480;10.986;2023-02-03T00:13:49;99185.78;;;4.67;96.64
55351;BME280;62194;49.480;10.986;2023-02-03T00:13:55;99182.03;;;4.68;96.41
55351;BME280;62194;49.480;10.986;2023-02-03T00:14:00;99179.59;;;4.67;96.37
55351;BME280;62194;49.480;10.986;2023-02-03T00:14:05;99173.13;;;4.68;96.30
55351;BME280;62194;49.480;10.986;2023-02-03T00:14:12;99171.78;;;4.65;96.56
55351;BME280;62194;49.480;10.986;2023-02-03T00:14:17;99177.69;;;4.67;96.37
55351;BME280;62194;49.480;10.986;2023-02-03T00:14:22;99173.69;;;4.65;96.33
55351;BME280;62194;49.480;10.986;2023-02-03T00:14:27;99178.78;;;4.66;96.72
55351;BME280;62194;49.480;10.986;2023-02-03T00:14:33;99179.09;;;4.65;96.70
55351;BME280;62194;49.480;10.986;2023-02-03T00:14:38;99176.09;;;4.66;96.59
55351;BME280;62194;49.480;10.986;2023-02-03T00:14:43;99179.88;;;4.65;96.75
55351;BME280;62194;49.480;10.986;2023-02-03T00:14:48;99174.75;;;4.64;96.96
55351;BME280;62194;49.480;10.986;2023-02-03T00:14:53;99178.28;;;4.64;96.37
55351;BME280;62194;49.480;10.986;2023-02-03T00:14:59;99181.50;;;4.66;96.73
55351;BME280;62194;49.480;10.986;2023-02-03T00:15:04;99170.69;;;4.66;96.72
55351;BME280;62194;49.480;10.986;2023-02-03T00:15:10;99163.72;;;4.60;96.58
55351;BME280;62194;49.480;10.986;2023-02-03T00:15:15;99178.00;;;4.66;96.32
55351;BME280;62194;49.480;10.986;2023-02-03T00:15:21;99170.97;;;4.65;96.34
55351;BME280;62194;49.480;10.986;2023-02-03T00:15:27;99169.88;;;4.66;96.20
55351;BME280;62194;49.480;10.986;2023-02-03T00:15:32;99178.00;;;4.66;96.29
55351;BME280;62194;49.480;10.986;2023-02-03T00:15:37;99175.59;;;4.64;96.42
55351;BME280;62194;49.480;10.986;2023-02-03T00:15:43;99173.69;;;4.65;96.27
55351;BME280;62194;49.480;10.986;2023-02-03T00:15:48;99170.19;;;4.64;96.38
55351;BME280;62194;49.480;10.986;2023-02-03T00:15:53;99178.28;;;4.64;96.51
55351;BME280;62194;49.480;10.986;2023-02-03T00:15:58;99172.06;;;4.64;96.60
55351;BME280;62194;49.480;10.986;2023-02-03T00:16:06;99179.88;;;4.65;96.54
55351;BME280;62194;49.480;10.986;2023-02-03T00:16:11;99175.59;;;4.64;96.52
55351;BME280;62194;49.480;10.986;2023-02-03T00:16:17;99178.78;;;4.66;96.42
55351;BME280;62194;49.480;10.986;2023-02-03T00:16:22;99169.88;;;4.66;96.32
55351;BME280;62194;49.480;10.986;2023-02-03T00:16:27;99172.59;;;4.66;96.47
55351;BME280;62194;49.480;10.986;2023-02-03T00:16:33;99176.38;;;4.65;96.53
55351;BME280;62194;49.480;10.986;2023-02-03T00:16:39;99169.09;;;4.65;96.33
55351;BME280;62194;49.480;10.986;2023-02-03T00:16:44;99174.19;;;4.67;96.29
55351;BME280;62194;49.480;10.986;2023-02-03T00:16:49;99184.19;;;4.66;96.42
55351;BME280;62194;49.480;10.986;2023-02-03T00:16:55;99171.50;;;4.67;96.32
55351;BME280;62194;49.480;10.986;2023-02-03T00:17:03;99177.69;;;4.67;96.43
55351;BME280;62194;49.480;10.986;2023-02-03T00:17:08;99180.69;;;4.66;96.26
55351;BME280;62194;49.480;10.986;2023-02-03T00:17:13;99176.88;;;4.67;96.76
55351;BME280;62194;49.480;10.986;2023-02-03T00:17:19;99173.69;;;4.65;96.87
55351;BME280;62194;49.480;10.986;2023-02-03T00:17:24;99172.59;;;4.66;96.90
55351;BME280;62194;49.480;10.986;2023-02-03T00:17:29;99178.78;;;4.66;96.70
55351;BME280;62194;49.480;10.986;2023-02-03T00:17:35;99170.97;;;4.65;96.75
55351;BME280;62194;49.480;10.986;2023-02-03T00:17:40;99178.78;;;4.66;97.14
55351;BME280;62194;49.480;10.986;2023-02-03T00:17:45;99176.88;;;4.67;97.36
55351;BME280;62194;49.480;10.986;2023-02-03T00:17:50;99178.78;;;4.66;96.98
55351;BME280;62194;49.480;10.986;2023-02-03T00:17:56;99175.59;;;4.64;96.93
55351;BME280;62194;49.480;10.986;2023-02-03T00:18:01;99176.38;;;4.65;97.06
55351;BME280;62194;49.480;10.986;2023-02-03T00:18:07;99184.50;;;4.65;97.29
55351;BME280;62194;49.480;10.986;2023-02-03T00:18:12;99181.78;;;4.65;97.66
55351;BME280;62194;49.480;10.986;2023-02-03T00:18:17;99175.59;;;4.64;97.31
55351;BME280;62194;49.480;10.986;2023-02-03T00:18:22;99179.09;;;4.65;97.53
55351;BME280;62194;49.480;10.986;2023-02-03T00:18:28;99180.16;;;4.64;97.60
55351;BME280;62194;49.480;10.986;2023-02-03T00:18:33;99173.69;;;4.65;97.38
55351;BME280;62194;49.480;10.986;2023-02-03T00:18:38;99186.09;;;4.66;97.57
55351;BME280;62194;49.480;10.986;2023-02-03T00:18:43;99171.78;;;4.65;97.79
55351;BME280;62194;49.480;10.986;2023-02-03T00:18:49;99176.88;;;4.67;97.91
55351;BME280;62194;49.480;10.986;2023-02-03T00:18:54;99183.09;;;4.67;97.74
55351;BME280;62194;49.480;10.986;2023-02-03T00:18:59;99177.69;;;4.67;97.76
55351;BME280;62194;49.480;10.986;2023-02-03T00:19:05;99185.00;;;4.67;97.84
55351;BME280;62194;49.480;10.986;2023-02-03T00:19:10;99179.59;;;4.67;97.68
55351;BME280;62194;49.480;10.986;2023-02-03T00:19:15;99174.19;;;4.67;97.59
55351;BME280;62194;49.480;10.986;2023-02-03T00:19:20;99180.41;;;4.67;97.44
55351;BME280;62194;49.480;10.986;2023-02-03T00:19:26;99178.53;;;4.68;97.41
55351;BME280;62194;49.480;10.986;2023-02-03T00:19:31;99183.38;;;4.66;97.32
55351;BME280;62194;49.480;10.986;2023-02-03T00:19:37;99177.19;;;4.65;97.23
55351;BME280;62194;49.480;10.986;2023-02-03T00:19:42;99175.28;;;4.66;97.22
55351;BME280;62194;49.480;10.986;2023-02-03T00:19:48;99179.88;;;4.65;97.40
55351;BME280;62194;49.480;10.986;2023-02-03T00:19:54;99178.28;;;4.64;96.91
55351;BME280;62194;49.480;10.986;2023-02-03T00:19:59;99174.75;;;4.64;96.91
55351;BME280;62194;49.480;10.986;2023-02-03T00:20:05;99176.38;;;4.65;97.02
55351;BME280;62194;49.480;10.986;2023-02-03T00:20:10;99173.94;;;4.63;97.00
55351;BME280;62194;49.480;10.986;2023-02-03T00:20:16;99186.09;;;4.66;96.64
55351;BME280;62194;49.480;10.986;2023-02-03T00:20:21;99181.78;;;4.65;96.81
55351;BME280;62194;49.480;10.986;2023-02-03T00:20:26;99172.88;;;4.64;97.08
55351;BME280;62194;49.480;10.986;2023-02-03T00:20:32;99180.16;;;4.64;96.91
55351;BME280;62194;49.480;10.986;2023-02-03T00:20:37;99185.28;;;4.65;97.10
55351;BME280;62194;49.480;10.986;2023-02-03T00:20:42;99181.25;;;4.63;97.14
55351;BME280;62194;49.480;10.986;2023-02-03T00:20:48;99182.84;;;4.64;96.87
55351;BME280;62194;49.480;10.986;2023-02-03T00:20:53;99183.69;;;4.64;97.23
55351;BME280;62194;49.480;10.986;2023-02-03T00:20:58;99179.09;;;4.65;97.17
55351;BME280;62194;49.480;10.986;2023-02-03T00:21:05;99184.50;;;4.65;97.05
55351;BME280;62194;49.480;10.986;2023-02-03T00:21:10;99180.16;;;4.64;97.00
55351;BME280;62194;49.480;10.986;2023-02-03T00:21:15;99185.00;;;4.67;97.43
55351;BME280;62194;49.480;10.986;2023-02-03T00:21:21;99176.66;;;4.63;97.20
55351;BME280;62194;49.480;10.986;2023-02-03T00:21:27;99176.38;;;4.65;97.13
55351;BME280;62194;49.480;10.986;2023-02-03T00:21:32;99175.59;;;4.64;97.42
55351;BME280;62194;49.480;10.986;2023-02-03T00:21:37;99181.00;;;4.64;97.38
55351;BME280;62194;49.480;10.986;2023-02-03T00:21:43;99180.16;;;4.64;97.21
55351;BME280;62194;49.480;10.986;2023-02-03T00:21:48;99174.47;;;4.65;97.46
55351;BME280;62194;49.480;10.986;2023-02-03T00:21:53;99176.66;;;4.63;97.31
55351;BME280;62194;49.480;10.986;2023-02-03T00:21:59;99178.28;;;4.64;96.88
55351;BME280;62194;49.480;10.986;2023-02-03T00:22:04;99184.75;;;4.63;97.37
55351;BME280;62194;49.480;10.986;2023-02-03T00:22:09;99173.16;;;4.63;97.36
55351;BME280;62194;49.480;10.986;2023-02-03T00:22:14;99185.56;;;4.64;97.35
55351;BME280;62194;49.480;10.986;2023-02-03T00:22:20;99179.34;;;4.63;97.40
55351;BME280;62194;49.480;10.986;2023-02-03T00:22:25;99186.66;;;4.63;97.08
55351;BME280;62194;49.480;10.986;2023-02-03T00:22:30;99182.34;;;4.62;97.45
55351;BME280;62194;49.480;10.986;2023-02-03T00:22:36;99178.56;;;4.63;97.60
55351;BME280;62194;49.480;10.986;2023-02-03T00:22:41;99175.03;;;4.62;97.59
55351;BME280;62194;49.480;10.986;2023-02-03T00:22:47;99183.41;;;4.61;97.44
55351;BME280;62194;49.480;10.986;2023-02-03T00:22:52;99181.56;;;4.61;97.34
55351;BME280;62194;49.480;10.986;2023-02-03T00:23:04;99183.16;;;4.62;97.76
55351;BME280;62194;49.480;10.986;2023-02-03T00:23:11;99181.25;;;4.63;97.59
55351;BME280;62194;49.480;10.986;2023-02-03T00:23:16;99178.56;;;4.63;97.58
55351;BME280;62194;49.480;10.986;2023-02-03T00:23:21;99185.06;;;4.62;97.32
55351;BME280;62194;49.480;10.986;2023-02-03T00:23:27;99186.38;;;4.64;97.37
55351;BME280;62194;49.480;10.986;2023-02-03T00:23:36;99173.94;;;4.63;97.38
55351;BME280;62194;49.480;10.986;2023-02-03T00:23:41;99175.84;;;4.63;97.40
55351;BME280;62194;49.480;10.986;2023-02-03T00:23:46;99182.06;;;4.63;97.45
55351;BME280;62194;49.480;10.986;2023-02-03T00:23:52;99173.16;;;4.63;97.45
55351;BME280;62194;49.480;10.986;2023-02-03T00:23:58;99181.56;;;4.61;97.47
55351;BME280;62194;49.480;10.986;2023-02-03T00:24:04;99180.16;;;4.64;97.42
55351;BME280;62194;49.480;10.986;2023-02-03T00:24:09;99175.03;;;4.62;97.56
55351;BME280;62194;49.480;10.986;2023-02-03T00:24:15;99175.84;;;4.63;97.43
55351;BME280;62194;49.480;10.986;2023-02-03T00:24:22;99183.16;;;4.62;97.59
55351;BME280;62194;49.480;10.986;2023-02-03T00:24:28;99183.16;;;4.62;97.65
55351;BME280;62194;49.480;10.986;2023-02-03T00:24:33;99179.66;;;4.62;97.30
55351;BME280;62194;49.480;10.986;2023-02-03T00:24:38;99183.94;;;4.63;97.50
55351;BME280;62194;49.480;10.986;2023-02-03T00:24:44;99185.06;;;4.62;97.52
55351;BME280;62194;49.480;10.986;2023-02-03T00:24:49;99179.66;;;4.62;97.89
55351;BME280;62194;49.480;10.986;2023-02-03T00:24:54;99183.16;;;4.62;97.66
55351;BME280;62194;49.480;10.986;2023-02-03T00:24:59;99185.06;;;4.62;97.53
55351;BME280;62194;49.480;10.986;2023-02-03T00:25:05;99182.63;;;4.60;97.62
55351;BME280;62194;49.480;10.986;2023-02-03T00:25:11;99178.56;;;4.63;98.00
55351;BME280;62194;49.480;10.986;2023-02-03T00:25:16;99175.31;;;4.61;97.83
55351;BME280;62194;49.480;10.986;2023-02-03T00:25:23;99176.94;;;4.62;97.74
55351;BME280;62194;49.480;10.986;2023-02-03T00:25:29;99177.75;;;4.62;97.83
55351;BME280;62194;49.480;10.986;2023-02-03T00:25:34;99181.25;;;4.63;98.34
55351;BME280;62194;49.480;10.986;2023-02-03T00:25:40;99176.94;;;4.62;97.95
55351;BME280;62194;49.480;10.986;2023-02-03T00:25:45;99176.94;;;4.62;98.05
55351;BME280;62194;49.480;10.986;2023-02-03T00:25:51;99185.06;;;4.62;98.01
55351;BME280;62194;49.480;10.986;2023-02-03T00:26:05;99178.84;;;4.61;97.71
55351;BME280;62194;49.480;10.986;2023-02-03T00:26:16;99183.16;;;4.62;98.04
55351;BME280;62194;49.480;10.986;2023-02-03T00:26:22;99183.16;;;4.62;97.83
55351;BME280;62194;49.480;10.986;2023-02-03T00:26:30;99188.56;;;4.62;97.86
55351;BME280;62194;49.480;10.986;2023-02-03T00:26:40;99179.13;;;4.60;97.86
55351;BME280;62194;49.480;10.986;2023-02-03T00:26:45;99177.22;;;4.60;97.77
55351;BME280;62194;49.480;10.986;2023-02-03T00:26:50;99181.56;;;4.61;97.74
55351;BME280;62194;49.480;10.986;2023-02-03T00:26:56;99178.00;;;4.61;97.92
55351;BME280;62194;49.480;10.986;2023-02-03T00:27:01;99185.84;;;4.62;97.92
55351;BME280;62194;49.480;10.986;2023-02-03T00:27:06;99185.31;;;4.60;97.69
55351;BME280;62194;49.480;10.986;2023-02-03T00:27:11;99180.72;;;4.61;97.62
55351;BME280;62194;49.480;10.986;2023-02-03T00:27:18;99175.31;;;4.61;97.76
55351;BME280;62194;49.480;10.986;2023-02-03T00:27:23;99174.50;;;4.60;97.73
55351;BME280;62194;49.480;10.986;2023-02-03T00:27:28;99182.63;;;4.60;97.54
55351;BME280;62194;49.480;10.986;2023-02-03T00:27:34;99181.56;;;4.61;97.64
55351;BME280;62194;49.480;10.986;2023-02-03T00:27:39;99175.31;;;4.61;97.60
55351;BME280;62194;49.480;10.986;2023-02-03T00:27:44;99183.72;;;4.59;97.27
55351;BME280;62194;49.480;10.986;2023-02-03T00:27:50;99182.34;;;4.62;97.60
55351;BME280;62194;49.480;10.986;2023-02-03T00:27:55;99182.34;;;4.62;97.52
55351;BME280;62194;49.480;10.986;2023-02-03T00:28:00;99180.44;;;4.62;97.45
55351;BME280;62194;49.480;10.986;2023-02-03T00:28:06;99173.72;;;4.60;97.34
55351;BME280;62194;49.480;10.986;2023-02-03T00:28:11;99173.44;;;4.61;97.47
55351;BME280;62194;49.480;10.986;2023-02-03T00:28:16;99181.56;;;4.61;97.64
55351;BME280;62194;49.480;10.986;2023-02-03T00:28:22;99186.94;;;4.61;97.66
55351;BME280;62194;49.480;10.986;2023-02-03T00:28:28;99183.16;;;4.62;97.64
55351;BME280;62194;49.480;10.986;2023-02-03T00:28:35;99188.25;;;4.64;97.83
55351;BME280;62194;49.480;10.986;2023-02-03T00:28:41;99184.75;;;4.63;97.80
55351;BME280;62194;49.480;10.986;2023-02-03T00:28:46;99188.00;;;4.65;97.63
55351;BME280;62194;49.480;10.986;2023-02-03T00:28:52;99176.66;;;4.63;97.62
55351;BME280;62194;49.480;10.986;2023-02-03T00:28:58;99183.16;;;4.62;97.40
55351;BME280;62194;49.480;10.986;2023-02-03T00:29:03;99185.84;;;4.62;97.56
55351;BME280;62194;49.480;10.986;2023-02-03T00:29:09;99179.66;;;4.62;97.60
55351;BME280;62194;49.480;10.986;2023-02-03T00:29:14;99185.06;;;4.62;97.37
55351;BME280;62194;49.480;10.986;2023-02-03T00:29:20;99184.25;;;4.61;97.22
55351;BME280;62194;49.480;10.986;2023-02-03T00:29:28;99177.75;;;4.62;97.18
55351;BME280;62194;49.480;10.986;2023-02-03T00:29:34;99164.50;;;4.61;97.49
55351;BME280;62194;49.480;10.986;2023-02-03T00:29:42;99175.03;;;4.62;97.20
55351;BME280;62194;49.480;10.986;2023-02-03T00:29:47;99172.09;;;4.59;97.28
55351;BME280;62194;49.480;10.986;2023-02-03T00:29:52;99176.41;;;4.60;97.51
55351;BME280;62194;49.480;10.986;2023-02-03T00:29:58;99179.66;;;4.62;97.39
55351;BME280;62194;49.480;10.986;2023-02-03T00:30:04;99182.34;;;4.62;97.86
55351;BME280;62194;49.480;10.986;2023-02-03T00:30:10;99181.25;;;4.63;97.62